createdAt,value
2023-03-01T00:01:06.368Z,175.94
2023-03-01T00:04:15.032Z,171.31
2023-03-01T00:07:21.796Z,166.49
2023-03-01T00:10:27.987Z,155.02
2023-03-01T00:13:34.816Z,163.00
2023-03-01T00:16:44.521Z,233.70
2023-03-01T00:19:54.000Z,197.94
2023-03-01T00:22:59.958Z,186.75
2023-03-01T00:26:11.299Z,162.38
2023-03-01T00:29:19.509Z,146.87
2023-03-01T00:32:26.306Z,123.51
2023-03-01T00:35:36.701Z,124.79
2023-03-01T00:38:46.257Z,116.41
2023-03-01T00:41:52.177Z,120.76
2023-03-01T00:44:58.988Z,121.97
2023-03-01T00:48:05.235Z,111.74
2023-03-01T00:51:18.201Z,109.86
2023-03-01T00:54:24.132Z,111.01
2023-03-01T00:57:31.130Z,112.30
2023-03-01T01:04:21.194Z,110.03
2023-03-01T01:07:29.816Z,114.55
2023-03-01T01:10:38.295Z,115.04
2023-03-01T01:13:45.747Z,120.59
2023-03-01T01:16:52.865Z,120.56
2023-03-01T01:19:58.828Z,127.84
2023-03-01T01:23:10.786Z,143.86
2023-03-01T01:26:21.006Z,142.08
2023-03-01T01:29:29.483Z,143.11
2023-03-01T01:32:35.574Z,155.10
2023-03-01T01:35:42.454Z,200.06
2023-03-01T01:38:51.141Z,191.92
2023-03-01T01:41:58.124Z,193.65
2023-03-01T01:45:37.355Z,174.26
2023-03-01T01:48:50.660Z,173.64
2023-03-01T01:52:09.297Z,161.32
2023-03-01T01:55:25.445Z,159.98
2023-03-01T01:58:34.960Z,165.52
2023-03-01T02:01:41.859Z,164.01
2023-03-01T02:04:48.271Z,162.77
2023-03-01T02:07:57.211Z,167.86
2023-03-01T02:11:07.576Z,163.71
2023-03-01T02:14:15.396Z,165.01
2023-03-01T02:17:25.485Z,184.42
2023-03-01T02:20:49.472Z,211.60
2023-03-01T02:23:56.803Z,186.20
2023-03-01T02:27:06.731Z,181.41
2023-03-01T02:30:16.693Z,165.23
2023-03-01T02:33:22.017Z,160.02
2023-03-01T02:36:35.840Z,160.14
2023-03-01T02:39:51.759Z,160.57
2023-03-01T02:43:02.818Z,158.94
2023-03-01T02:46:21.342Z,158.87
2023-03-01T02:49:32.982Z,178.18
2023-03-01T02:52:52.021Z,174.59
2023-03-01T02:55:58.812Z,175.23
2023-03-01T02:59:06.813Z,172.72
2023-03-01T03:02:37.378Z,163.11
2023-03-01T03:05:57.985Z,156.92
2023-03-01T03:09:04.797Z,155.58
2023-03-01T03:12:11.904Z,154.32
2023-03-01T03:15:18.966Z,157.39
2023-03-01T03:18:29.678Z,154.37
2023-03-01T03:21:36.501Z,152.11
2023-03-01T03:24:43.313Z,157.74
2023-03-01T03:27:58.285Z,156.51
2023-03-01T03:31:06.437Z,158.99
2023-03-01T03:34:19.286Z,167.85
2023-03-01T03:37:38.462Z,165.57
2023-03-01T03:40:47.694Z,163.42
2023-03-01T03:43:54.540Z,180.98
2023-03-01T03:47:00.533Z,182.09
2023-03-01T03:50:14.393Z,175.96
2023-03-01T03:53:20.638Z,169.81
2023-03-01T03:56:28.879Z,165.52
2023-03-01T03:59:35.126Z,158.67
2023-03-01T04:02:47.600Z,159.64
2023-03-01T04:05:56.806Z,157.06
2023-03-01T04:09:05.961Z,155.44
2023-03-01T04:12:12.481Z,162.03
2023-03-01T04:15:19.316Z,164.86
2023-03-01T04:18:27.848Z,164.10
2023-03-01T04:21:37.356Z,166.99
2023-03-01T04:24:43.409Z,168.87
2023-03-01T04:27:50.213Z,165.38
2023-03-01T04:30:58.336Z,162.15
2023-03-01T04:34:05.264Z,150.46
2023-03-01T04:37:13.850Z,140.87
2023-03-01T04:40:22.559Z,126.07
2023-03-01T04:43:28.532Z,122.18
2023-03-01T04:46:35.615Z,123.98
2023-03-01T04:49:41.684Z,135.52
2023-03-01T04:52:52.602Z,144.82
2023-03-01T04:55:59.496Z,128.61
2023-03-01T04:59:09.093Z,134.26
2023-03-01T05:02:14.994Z,148.23
2023-03-01T05:05:21.757Z,124.05
2023-03-01T05:08:30.343Z,109.53
2023-03-01T05:11:37.174Z,97.93
2023-03-01T05:14:43.186Z,103.96
2023-03-01T05:17:50.066Z,99.16
2023-03-01T05:20:57.468Z,118.27
2023-03-01T05:24:12.849Z,134.94
2023-03-01T05:27:18.769Z,137.55
2023-03-01T05:30:25.792Z,143.37
2023-03-01T05:33:32.181Z,138.94
2023-03-01T05:36:39.583Z,143.80
2023-03-01T05:39:52.543Z,137.63
2023-03-01T05:43:01.788Z,143.80
2023-03-01T05:46:08.368Z,153.92
2023-03-01T05:49:16.457Z,159.24
2023-03-01T05:52:22.515Z,158.12
2023-03-01T05:55:34.244Z,155.95
2023-03-01T05:58:42.906Z,144.09
2023-03-01T06:01:49.730Z,155.51
2023-03-01T06:04:55.914Z,151.57
2023-03-01T06:08:04.488Z,130.59
2023-03-01T06:11:13.347Z,142.86
2023-03-01T06:14:20.208Z,128.24
2023-03-01T06:17:26.189Z,113.13
2023-03-01T06:20:33.902Z,119.25
2023-03-01T06:23:40.334Z,104.75
2023-03-01T06:26:49.855Z,84.07
2023-03-01T06:29:55.675Z,105.65
2023-03-01T06:33:03.906Z,72.69
2023-03-01T06:36:11.779Z,66.87
2023-03-01T06:39:18.905Z,59.12
2023-03-01T06:42:27.377Z,61.62
2023-03-01T06:45:34.177Z,57.43
2023-03-01T06:48:40.480Z,57.02
2023-03-01T06:51:47.328Z,54.88
2023-03-01T06:54:53.414Z,52.24
2023-03-01T06:58:05.795Z,52.24
2023-03-01T07:01:12.996Z,53.51
2023-03-01T07:04:19.859Z,55.96
2023-03-01T07:07:25.965Z,56.45
2023-03-01T07:10:33.257Z,55.57
2023-03-01T07:13:41.850Z,49.76
2023-03-01T07:16:48.566Z,50.63
2023-03-01T07:19:54.497Z,49.62
2023-03-01T07:23:01.864Z,50.49
2023-03-01T07:26:08.344Z,53.23
2023-03-01T07:29:17.760Z,54.75
2023-03-01T07:32:23.796Z,53.67
2023-03-01T07:35:32.086Z,52.48
2023-03-01T07:38:38.263Z,54.71
2023-03-01T07:41:45.049Z,56.57
2023-03-01T07:44:53.508Z,60.10
2023-03-01T07:48:00.452Z,61.79
2023-03-01T07:51:09.858Z,64.57
2023-03-01T07:54:16.665Z,70.64
2023-03-01T07:57:22.738Z,77.75
2023-03-01T08:00:45.035Z,75.77
2023-03-01T08:03:51.246Z,69.65
2023-03-01T08:06:58.692Z,68.83
2023-03-01T08:10:04.545Z,67.89
2023-03-01T08:13:11.295Z,66.79
2023-03-01T08:16:20.470Z,65.39
2023-03-01T08:19:29.301Z,62.06
2023-03-01T08:22:35.288Z,57.69
2023-03-01T08:25:42.752Z,55.53
2023-03-01T08:28:49.620Z,44.80
2023-03-01T08:31:59.141Z,38.11
2023-03-01T08:35:05.043Z,40.40
2023-03-01T08:38:11.804Z,40.95
2023-03-01T08:41:18.289Z,49.21
2023-03-01T08:44:25.782Z,47.30
2023-03-01T08:47:34.727Z,36.37
2023-03-01T08:50:42.493Z,37.16
2023-03-01T08:53:50.206Z,41.57
2023-03-01T08:56:56.942Z,40.23
2023-03-01T09:00:04.469Z,38.20
2023-03-01T09:03:13.728Z,38.12
2023-03-01T09:06:20.638Z,34.84
2023-03-01T09:09:27.387Z,34.92
2023-03-01T09:12:33.447Z,38.24
2023-03-01T09:15:41.790Z,35.76
2023-03-01T09:18:55.400Z,37.82
2023-03-01T09:22:02.151Z,37.60
2023-03-01T09:25:09.706Z,37.30
2023-03-01T09:28:29.205Z,39.61
2023-03-01T09:31:35.821Z,37.99
2023-03-01T09:34:57.539Z,37.36
2023-03-01T09:38:03.581Z,37.08
2023-03-01T09:41:42.455Z,35.63
2023-03-01T09:44:58.793Z,37.21
2023-03-01T09:48:10.255Z,34.81
2023-03-01T09:51:30.917Z,34.43
2023-03-01T09:54:37.747Z,31.11
2023-03-01T09:57:54.590Z,31.01
2023-03-01T10:01:14.417Z,30.46
2023-03-01T10:04:50.717Z,29.84
2023-03-01T10:08:32.416Z,29.03
2023-03-01T10:11:46.166Z,28.64
2023-03-01T10:15:06.557Z,30.38
2023-03-01T10:18:24.130Z,31.03
2023-03-01T10:21:34.020Z,31.35
2023-03-01T10:24:42.912Z,30.87
2023-03-01T10:27:58.065Z,30.06
2023-03-01T10:31:04.696Z,30.45
2023-03-01T10:34:22.488Z,29.15
2023-03-01T10:37:30.784Z,30.09
2023-03-01T10:40:54.869Z,30.18
2023-03-01T10:44:03.577Z,31.10
2023-03-01T10:47:26.966Z,31.87
2023-03-01T10:50:33.394Z,31.41
2023-03-01T10:53:46.344Z,32.81
2023-03-01T10:56:58.908Z,32.17
2023-03-01T11:00:24.849Z,32.25
2023-03-01T11:03:34.564Z,32.33
2023-03-01T11:06:44.157Z,32.23
2023-03-01T11:09:50.113Z,33.92
2023-03-01T11:13:18.417Z,34.55
2023-03-01T11:16:37.111Z,33.47
2023-03-01T11:19:54.196Z,34.86
2023-03-01T11:23:16.180Z,37.76
2023-03-01T11:26:25.345Z,35.04
2023-03-01T11:29:48.825Z,34.18
2023-03-01T11:33:15.613Z,34.28
2023-03-01T11:36:37.293Z,34.09
2023-03-01T11:39:55.477Z,35.33
2023-03-01T11:43:19.435Z,34.88
2023-03-01T11:47:08.487Z,35.20
2023-03-01T11:50:35.998Z,36.32
2023-03-01T11:54:06.250Z,37.62
2023-03-01T11:57:42.789Z,37.35
2023-03-01T12:01:19.696Z,38.50
2023-03-01T12:05:04.149Z,39.08
2023-03-01T12:08:24.578Z,39.35
2023-03-01T12:11:52.227Z,37.48
2023-03-01T12:15:34.654Z,38.96
2023-03-01T12:19:12.034Z,38.05
2023-03-01T12:22:35.154Z,36.70
2023-03-01T12:25:48.321Z,36.41
2023-03-01T12:29:24.619Z,36.44
2023-03-01T12:33:01.560Z,36.65
2023-03-01T12:36:42.313Z,34.85
2023-03-01T12:40:17.727Z,34.77
2023-03-01T12:43:48.295Z,34.12
2023-03-01T12:47:16.028Z,33.53
2023-03-01T12:50:27.734Z,34.65
2023-03-01T12:53:43.118Z,33.89
2023-03-01T12:56:54.325Z,34.33
2023-03-01T13:00:27.462Z,34.88
2023-03-01T13:04:06.895Z,34.06
2023-03-01T13:07:33.371Z,32.49
2023-03-01T13:10:53.294Z,31.73
2023-03-01T13:14:50.223Z,30.54
2023-03-01T13:18:00.473Z,29.74
2023-03-01T13:21:08.952Z,29.44
2023-03-01T13:24:31.449Z,29.58
2023-03-01T13:27:37.336Z,30.27
2023-03-01T13:30:50.046Z,30.48
2023-03-01T13:33:57.343Z,30.64
2023-03-01T13:37:15.127Z,29.64
2023-03-01T13:41:04.063Z,28.74
2023-03-01T13:44:28.127Z,29.21
2023-03-01T13:47:41.466Z,30.63
2023-03-01T13:50:56.808Z,30.14
2023-03-01T13:54:04.188Z,31.11
2023-03-01T13:57:30.396Z,29.10
2023-03-01T14:00:41.581Z,29.23
2023-03-01T14:03:51.199Z,28.06
2023-03-01T14:07:14.896Z,28.54
2023-03-01T14:10:21.826Z,28.72
2023-03-01T14:13:52.930Z,29.40
2023-03-01T14:17:22.406Z,29.16
2023-03-01T14:20:37.232Z,28.74
2023-03-01T14:23:48.017Z,28.48
2023-03-01T14:26:54.893Z,28.26
2023-03-01T14:30:05.143Z,28.42
2023-03-01T14:33:25.587Z,27.36
2023-03-01T14:36:38.036Z,26.65
2023-03-01T14:39:44.152Z,26.14
2023-03-01T14:42:51.015Z,26.35
2023-03-01T14:45:57.116Z,26.19
2023-03-01T14:49:14.001Z,26.14
2023-03-01T14:52:36.055Z,25.79
2023-03-01T14:55:48.639Z,25.15
2023-03-01T14:59:02.235Z,26.40
2023-03-01T15:02:18.413Z,25.89
2023-03-01T15:05:33.551Z,27.09
2023-03-01T15:08:51.617Z,26.81
2023-03-01T15:11:57.681Z,27.05
2023-03-01T15:15:05.043Z,27.35
2023-03-01T15:18:22.550Z,28.51
2023-03-01T15:21:35.001Z,28.36
2023-03-01T15:24:43.599Z,27.59
2023-03-01T15:27:54.449Z,28.44
2023-03-01T15:31:07.884Z,26.61
2023-03-01T15:34:29.148Z,26.43
2023-03-01T15:37:51.000Z,26.28
2023-03-01T15:41:09.218Z,26.18
2023-03-01T15:44:41.676Z,27.30
2023-03-01T15:47:54.560Z,30.15
2023-03-01T15:51:04.124Z,38.01
2023-03-01T15:54:24.409Z,50.44
2023-03-01T15:57:34.133Z,40.12
2023-03-01T16:00:58.190Z,30.37
2023-03-01T16:04:06.109Z,31.06
2023-03-01T16:07:14.102Z,34.01
2023-03-01T16:10:21.296Z,37.21
2023-03-01T16:13:30.646Z,41.57
2023-03-01T16:16:36.857Z,38.51
2023-03-01T16:19:43.548Z,42.52
2023-03-01T16:22:50.538Z,50.45
2023-03-01T16:25:57.562Z,45.11
2023-03-01T16:29:06.072Z,41.67
2023-03-01T16:32:12.951Z,42.07
2023-03-01T16:35:22.913Z,44.15
2023-03-01T16:38:29.782Z,48.14
2023-03-01T16:41:35.705Z,47.98
2023-03-01T16:44:47.774Z,49.77
2023-03-01T16:47:55.868Z,53.65
2023-03-01T16:51:05.039Z,60.10
2023-03-01T16:54:10.876Z,58.58
2023-03-01T16:57:18.332Z,66.29
2023-03-01T17:00:27.605Z,70.48
2023-03-01T17:03:34.229Z,68.53
2023-03-01T17:06:40.059Z,65.36
2023-03-01T17:09:47.046Z,64.51
2023-03-01T17:12:53.653Z,62.48
2023-03-01T17:16:03.005Z,61.98
2023-03-01T17:19:08.833Z,58.11
2023-03-01T17:22:17.897Z,64.96
2023-03-01T17:25:23.997Z,78.83
2023-03-01T17:28:37.371Z,84.69
2023-03-01T17:31:45.847Z,87.06
2023-03-01T17:34:52.634Z,85.40
2023-03-01T17:37:58.503Z,91.67
2023-03-01T17:41:05.415Z,105.65
2023-03-01T17:44:19.986Z,85.94
2023-03-01T17:47:31.173Z,89.04
2023-03-01T17:50:44.493Z,208.09
2023-03-01T17:53:51.264Z,301.53
2023-03-01T17:56:59.142Z,294.17
2023-03-01T18:00:06.962Z,215.21
2023-03-01T18:03:21.823Z,185.21
2023-03-01T18:06:31.585Z,133.31
2023-03-01T18:09:37.774Z,123.23
2023-03-01T18:12:45.343Z,165.29
2023-03-01T18:15:51.311Z,118.16
2023-03-01T18:19:01.208Z,113.31
2023-03-01T18:22:07.107Z,103.42
2023-03-01T18:25:14.138Z,92.50
2023-03-01T18:28:21.284Z,80.91
2023-03-01T18:31:32.739Z,69.33
2023-03-01T18:34:41.290Z,63.06
2023-03-01T18:37:48.265Z,58.63
2023-03-01T18:40:56.064Z,59.94
2023-03-01T18:44:04.583Z,64.45
2023-03-01T18:47:10.513Z,65.08
2023-03-01T18:50:20.266Z,67.16
2023-03-01T18:53:27.912Z,80.83
2023-03-01T18:56:37.220Z,98.14
2023-03-01T18:59:43.392Z,77.09
2023-03-01T19:02:50.339Z,74.32
2023-03-01T19:06:02.342Z,72.20
2023-03-01T19:09:11.581Z,76.97
2023-03-01T19:12:20.020Z,70.88
2023-03-01T19:15:26.819Z,62.44
2023-03-01T19:18:32.931Z,59.56
2023-03-01T19:21:42.299Z,62.20
2023-03-01T19:24:48.598Z,60.65
2023-03-01T19:27:55.223Z,58.56
2023-03-01T19:31:04.336Z,59.68
2023-03-01T19:34:12.305Z,66.09
2023-03-01T19:37:24.018Z,65.35
2023-03-01T19:40:30.811Z,63.43
2023-03-01T19:43:41.713Z,62.17
2023-03-01T19:46:48.476Z,66.67
2023-03-01T19:49:54.566Z,68.02
2023-03-01T19:53:06.073Z,77.01
2023-03-01T19:56:12.825Z,64.60
2023-03-01T19:59:24.626Z,68.93
2023-03-01T20:02:31.507Z,69.22
2023-03-01T20:05:40.421Z,69.01
2023-03-01T20:08:49.352Z,80.37
2023-03-01T20:11:56.089Z,91.51
2023-03-01T20:15:08.244Z,102.93
2023-03-01T20:18:18.286Z,85.28
2023-03-01T20:21:30.477Z,80.72
2023-03-01T20:24:43.899Z,123.47
2023-03-01T20:27:51.913Z,99.79
2023-03-01T20:30:58.769Z,99.98
2023-03-01T20:34:11.208Z,121.82
2023-03-01T20:37:17.973Z,158.65
2023-03-01T20:40:28.481Z,127.04
2023-03-01T20:43:36.763Z,103.50
2023-03-01T20:46:45.503Z,121.08
2023-03-01T20:49:55.739Z,133.16
2023-03-01T20:53:01.734Z,135.89
2023-03-01T20:56:15.431Z,128.13
2023-03-01T20:59:21.385Z,107.19
2023-03-01T21:02:28.126Z,78.43
2023-03-01T21:05:34.070Z,79.27
2023-03-01T21:08:42.595Z,92.54
2023-03-01T21:11:52.894Z,89.06
2023-03-01T21:14:59.742Z,75.83
2023-03-01T21:18:09.764Z,78.13
2023-03-01T21:21:19.854Z,90.80
2023-03-01T21:24:25.778Z,142.60
2023-03-01T21:27:40.510Z,129.25
2023-03-01T21:30:46.365Z,140.89
2023-03-01T21:33:56.792Z,151.28
2023-03-01T21:37:02.893Z,166.07
2023-03-01T21:40:12.365Z,185.98
2023-03-01T21:43:20.832Z,218.85
2023-03-01T21:46:32.052Z,237.97
2023-03-01T21:49:46.796Z,192.63
2023-03-01T21:52:53.550Z,206.26
2023-03-01T21:55:59.893Z,213.02
2023-03-01T21:59:24.238Z,225.51
2023-03-01T22:02:32.096Z,259.62
2023-03-01T22:05:44.591Z,283.66
2023-03-01T22:08:53.831Z,287.18
2023-03-01T22:12:02.763Z,304.38
2023-03-01T22:15:13.278Z,274.90
2023-03-01T22:18:19.956Z,251.35
2023-03-01T22:21:26.946Z,246.83
2023-03-01T22:24:33.733Z,242.57
2023-03-01T22:27:40.227Z,190.45
2023-03-01T22:30:49.559Z,172.06
2023-03-01T22:33:57.896Z,177.53
2023-03-01T22:37:14.290Z,183.07
2023-03-01T22:40:20.393Z,198.44
2023-03-01T22:43:27.135Z,208.32
2023-03-01T22:46:35.869Z,197.08
2023-03-01T22:49:42.764Z,195.25
2023-03-01T22:52:48.737Z,207.67
2023-03-01T22:55:55.446Z,227.50
2023-03-01T22:59:02.716Z,215.78
2023-03-01T23:02:18.249Z,210.56
2023-03-01T23:05:24.193Z,205.38
2023-03-01T23:08:31.018Z,189.79
2023-03-01T23:11:40.283Z,187.77
2023-03-01T23:14:47.049Z,253.10
2023-03-01T23:17:55.590Z,361.55
2023-03-01T23:21:02.406Z,269.96
2023-03-01T23:24:09.582Z,219.64
2023-03-01T23:27:16.496Z,202.66
2023-03-01T23:30:22.726Z,192.01
2023-03-01T23:33:41.558Z,205.39
2023-03-01T23:36:52.873Z,213.86
2023-03-01T23:40:00.861Z,207.89
2023-03-01T23:43:11.693Z,216.31
2023-03-01T23:46:22.377Z,222.17
2023-03-01T23:49:39.714Z,245.27
2023-03-01T23:52:46.522Z,241.10
2023-03-01T23:55:56.929Z,266.81
2023-03-01T23:59:09.282Z,289.43
